Latest Weather Observations for Bundaberg

IDQ60801

Issued at 3:02 pm EST Tuesday 30 June 2015 (issued every 30 minutes, with the page automatically refreshed every 10 minutes)

About weather observations | Map of weather stations | Latest weather observations for QLD | Other Formats
Station Details ID: 039128 Name: BUNDABERG AERO Lat: -24.91 Lon: 152.32 Height: 30.82 m
Data from the previous 72 hours. | See also: Recent months at Bundaberg
Date/Time
EST
Temp
°C
App
Temp
°C
Dew
Point
Rel
Hum
%
Delta-T
°C
Wind Press
QNH
hPa
Press
MSL
hPa
Rain
since 9 am
mm
Dir
 
Spd
km/h
Gust
km/h
Spd
kts
Gust
kts
30/03:00pm 21.9 19.9 15.0 65 4.1 E 19 24 10 13 1023.3 1023.3 0.0
30/02:30pm 22.1 19.8 14.7 63 4.4 ESE 20 24 11 13 1023.3 1023.3 0.0
30/02:00pm 22.3 19.5 14.4 61 4.6 E 22 28 12 15 1023.4 1023.4 0.0
30/01:30pm 22.5 19.1 13.8 58 5.1 E 24 32 13 17 1023.6 1023.6 0.0
30/01:00pm 22.7 19.5 14.3 59 4.9 ESE 24 32 13 17 1024.0 1024.0 0.0
30/12:30pm 22.7 19.9 14.3 59 4.9 ESE 22 30 12 16 1024.5 1024.5 0.0
30/12:00pm 22.4 19.1 14.0 59 4.9 ESE 24 33 13 18 1025.0 1025.0 0.0
30/11:30am 23.4 19.9 14.4 57 5.3 ESE 26 37 14 20 1025.3 1025.3 0.0
30/11:00am 22.7 19.4 14.0 58 5.1 SE 24 33 13 18 1025.5 1025.5 0.0
30/10:30am 22.3 19.5 14.4 61 4.6 SE 22 28 12 15 1025.9 1025.9 0.0
30/10:00am 20.9 18.0 14.1 65 3.9 SE 22 33 12 18 1026.1 1026.1 0.0
30/09:30am 19.4 17.1 14.6 74 2.8 SE 20 30 11 16 1026.3 1026.3 0.0
30/09:00am 18.1 16.3 14.4 79 2.1 SSE 17 26 9 14 1026.7 1026.7 0.0
30/08:30am 17.2 15.9 14.7 85 1.4 S 15 24 8 13 1026.8 1026.8 0.0
30/08:00am 16.1 14.6 14.3 89 1.0 S 15 19 8 10 1026.5 1026.5 0.0
30/07:30am 15.2 13.5 13.7 91 0.8 SSE 15 22 8 12 1026.2 1026.2 0.0
30/07:00am 14.7 13.4 13.6 93 0.6 SSE 13 19 7 10 1025.7 1025.7 0.0
30/06:30am 14.7 13.4 13.7 94 0.6 SSE 13 19 7 10 1025.3 1025.3 0.0
30/06:00am 14.6 12.9 13.6 94 0.6 SSE 15 20 8 11 1025.0 1025.0 0.0
30/05:30am 14.5 13.1 13.5 94 0.6 SSE 13 17 7 9 1025.0 1025.0 0.0
30/05:00am 14.6 13.3 13.6 94 0.6 SSE 13 20 7 11 1025.0 1025.0 0.0
30/04:30am 14.7 13.4 13.7 94 0.6 SSE 13 17 7 9 1025.0 1025.0 0.0
30/04:00am 14.6 13.7 13.6 94 0.6 SSE 11 17 6 9 1025.2 1025.2 0.0
30/03:30am 14.6 13.3 13.6 94 0.6 S 13 22 7 12 1025.6 1025.6 0.0
30/03:00am 14.6 13.7 13.6 94 0.6 S 11 17 6 9 1025.8 1025.8 0.0
30/02:30am 14.6 13.3 13.6 94 0.6 S 13 19 7 10 1025.9 1025.9 0.0
30/02:00am 14.6 13.3 13.6 94 0.6 S 13 19 7 10 1026.1 1026.1 0.0
30/01:30am 14.6 13.7 13.6 94 0.6 S 11 15 6 8 1026.4 1026.4 0.0
30/01:00am 14.7 13.8 13.7 94 0.6 S 11 15 6 8 1026.6 1026.6 0.0
30/12:30am 14.9 14.0 13.8 93 0.6 S 11 17 6 9 1026.6 1026.6 0.0
30/12:00am 15.0 14.1 13.7 92 0.7 S 11 17 6 9 1026.7 1026.7 0.0
 
Date/Time
EST
Temp
°C
App
Temp
°C
Dew
Point
Rel
Hum
%
Delta-T
°C
Wind Press
QNH
hPa
Press
MSL
hPa
Rain
since 9 am
mm
Dir
 
Spd
km/h
Gust
km/h
Spd
kts
Gust
kts
29/11:30pm 15.2 14.0 13.9 92 0.7 S 13 19 7 10 1026.9 1026.9 0.0
29/11:00pm 15.3 14.4 13.8 91 0.8 S 11 17 6 9 1027.1 1027.1 0.0
29/10:30pm 15.6 14.4 14.0 90 0.9 S 13 20 7 11 1027.0 1027.0 0.0
29/10:00pm 15.7 14.5 14.1 90 0.9 S 13 19 7 10 1026.9 1026.9 0.0
29/09:30pm 16.0 14.7 13.8 87 1.2 SSE 13 20 7 11 1027.1 1027.1 0.0
29/09:00pm 16.3 15.0 13.6 84 1.5 SSE 13 17 7 9 1027.2 1027.2 0.0
29/08:30pm 16.7 16.3 14.2 85 1.4 S 9 13 5 7 1027.2 1027.2 0.0
29/08:00pm 17.3 17.1 14.6 84 1.5 SSE 9 13 5 7 1027.0 1027.0 0.0
29/07:30pm 17.8 17.2 14.7 82 1.8 SSE 11 15 6 8 1026.8 1026.8 0.0
29/07:00pm 17.8 17.6 14.7 82 1.8 SSE 9 15 5 8 1026.6 1026.6 0.0
29/06:30pm 17.7 17.5 14.6 82 1.8 SSE 9 11 5 6 1026.4 1026.4 0.0
29/06:00pm 18.2 17.2 14.5 79 2.1 SE 13 15 7 8 1026.1 1026.1 0.0
29/05:30pm 19.3 18.5 15.2 77 2.4 SE 13 19 7 10 1025.9 1025.9 0.0
29/05:00pm 19.6 18.7 14.8 74 2.8 SE 13 15 7 8 1025.6 1025.6 0.0
29/04:30pm 21.0 19.2 14.4 66 3.9 ESE 17 20 9 11 1025.4 1025.4 0.0
29/04:00pm 21.6 18.5 14.5 64 4.1 ESE 24 32 13 17 1025.2 1025.2 0.0
29/03:30pm 21.7 18.2 14.6 64 4.2 ESE 26 35 14 19 1025.2 1025.2 0.0
29/03:00pm 22.5 17.8 14.4 60 4.7 ESE 32 41 17 22 1025.0 1025.0 0.0
29/02:30pm 22.9 18.8 13.9 57 5.3 E 28 39 15 21 1025.0 1025.0 0.0
29/02:00pm 23.2 18.8 14.2 57 5.3 ESE 30 39 16 21 1025.5 1025.5 0.0
29/01:30pm 23.3 19.6 13.8 55 5.6 E 26 35 14 19 1025.8 1025.8 0.0
29/01:00pm 22.3 18.1 13.4 57 5.1 E 28 37 15 20 1026.5 1026.5 0.0
29/12:30pm 23.4 20.4 14.9 59 5.1 ESE 24 32 13 17 1027.2 1027.2 0.0
29/12:00pm 22.4 19.6 14.3 60 4.7 ESE 22 32 12 17 1027.6 1027.6 0.0
29/11:30am 23.5 22.1 15.5 60 4.8 SE 17 22 9 12 1027.8 1027.8 0.0
29/11:00am 21.6 20.1 15.2 67 3.8 SE 17 22 9 12 1028.2 1028.2 0.0
29/10:30am 22.0 21.6 16.3 70 3.5 SSE 13 20 7 11 1028.4 1028.4 0.0
29/10:00am 21.1 20.7 16.1 73 3.0 SSE 13 17 7 9 1028.4 1028.4 0.0
29/09:30am 19.3 17.5 15.6 79 2.2 SE 19 24 10 13 1028.4 1028.4 0.0
29/09:00am 18.2 16.8 15.5 84 1.6 SSE 17 24 9 13 1028.6 1028.6 0.2
29/08:30am 17.2 16.4 15.2 88 1.2 SSE 13 19 7 10 1028.8 1028.8 0.2
29/08:00am 16.2 15.4 15.1 93 0.6 S 13 20 7 11 1028.9 1028.9 0.2
29/07:30am 15.2 14.6 14.6 96 0.3 S 11 17 6 9 1028.4 1028.4 0.2
29/07:00am 14.3 13.4 13.7 96 0.3 S 11 17 6 9 1027.8 1027.8 0.2
29/06:30am 13.9 12.9 13.3 96 0.3 S 11 15 6 8 1027.4 1027.4 0.2
29/06:00am 14.1 13.5 13.5 96 0.3 S 9 11 5 6 1027.3 1027.3 0.2
29/05:30am 14.2 13.3 13.6 96 0.3 S 11 15 6 8 1027.0 1027.0 0.0
29/05:00am 14.4 13.5 13.6 95 0.4 S 11 15 6 8 1026.9 1026.9 0.0
29/04:30am 14.5 13.2 13.7 95 0.4 S 13 15 7 8 1026.8 1026.8 0.0
29/04:00am 14.6 13.3 13.8 95 0.4 S 13 15 7 8 1026.8 1026.8 0.0
29/03:30am 14.7 13.5 13.9 95 0.4 S 13 17 7 9 1026.6 1026.6 0.0
29/03:00am 14.9 14.1 14.1 95 0.4 S 11 15 6 8 1026.8 1026.8 0.0
29/02:30am 15.0 14.6 14.0 94 0.6 S 9 13 5 7 1027.0 1027.0 0.0
29/02:00am 15.2 14.5 14.2 94 0.6 S 11 13 6 7 1027.1 1027.1 0.0
29/01:30am 15.2 15.2 14.2 94 0.6 S 7 11 4 6 1027.2 1027.2 0.0
29/01:00am 15.6 15.0 14.6 94 0.6 S 11 15 6 8 1027.4 1027.4 0.0
29/12:30am 16.1 15.6 14.8 92 0.7 S 11 17 6 9 1027.5 1027.5 0.0
29/12:00am 16.6 16.1 15.0 90 0.9 SSE 11 15 6 8 1027.7 1027.7 0.0
 
Date/Time
EST
Temp
°C
App
Temp
°C
Dew
Point
Rel
Hum
%
Delta-T
°C
Wind Press
QNH
hPa
Press
MSL
hPa
Rain
since 9 am
mm
Dir
 
Spd
km/h
Gust
km/h
Spd
kts
Gust
kts
28/11:30pm 17.1 16.8 15.4 90 1.0 SSE 11 19 6 10 1028.0 1028.0 0.0
28/11:00pm 17.1 16.8 15.4 90 1.0 SSE 11 15 6 8 1028.1 1028.1 0.0
28/10:30pm 17.2 16.9 15.5 90 1.0 SSE 11 17 6 9 1028.5 1028.5 0.0
28/10:00pm 17.2 16.5 15.4 89 1.0 SSE 13 20 7 11 1028.4 1028.4 0.0
28/09:30pm 17.2 16.4 15.0 87 1.3 SSE 13 17 7 9 1028.5 1028.5 0.0
28/09:00pm 17.0 16.5 14.8 87 1.3 S 11 15 6 8 1028.4 1028.4 0.0
28/08:30pm 17.3 16.9 15.1 87 1.3 SSE 11 17 6 9 1028.5 1028.5 0.0
28/08:00pm 17.7 16.9 15.1 85 1.5 SSE 13 19 7 10 1028.4 1028.4 0.0
28/07:30pm 18.2 17.8 15.3 83 1.7 SSE 11 15 6 8 1028.4 1028.4 0.0
28/07:00pm 18.5 17.4 15.2 81 1.9 SSE 15 19 8 10 1028.1 1028.1 0.0
28/06:30pm 19.2 18.2 14.5 74 2.7 SE 13 20 7 11 1027.8 1027.8 0.0
28/06:00pm 19.3 16.4 15.0 76 2.5 SE 24 30 13 16 1027.4 1027.4 0.0
28/05:30pm 19.5 18.0 15.2 76 2.5 ESE 17 24 9 13 1027.0 1027.0 0.0
28/05:00pm 20.3 18.6 14.7 70 3.3 ESE 17 22 9 12 1026.8 1026.8 0.0
28/04:30pm 21.2 18.3 14.1 64 4.1 ESE 22 32 12 17 1026.6 1026.6 0.0
28/04:00pm 22.2 19.8 14.3 61 4.6 ESE 20 32 11 17 1026.5 1026.5 0.0
28/03:30pm 21.9 17.6 13.3 58 5.0 ESE 28 35 15 19 1026.3 1026.3 0.0
28/03:00pm 22.6 18.1 13.7 57 5.1 ESE 30 39 16 21 1026.3 1026.3 0.0
28/02:30pm 23.3 18.6 13.2 53 5.8 ESE 30 39 16 21 1026.1 1026.1 0.0
28/02:00pm 23.4 18.5 12.4 50 6.2 ESE 30 39 16 21 1026.1 1026.1 0.0
28/01:30pm 23.3 18.3 12.3 50 6.3 ESE 30 39 16 21 1026.3 1026.3 0.0
28/01:00pm 24.0 19.9 13.8 53 5.9 ESE 28 39 15 21 1026.4 1026.4 0.0
28/12:30pm 23.3 19.2 14.8 59 5.1 ESE 30 41 16 22 1026.4 1026.4 0.0
28/12:00pm 23.8 19.5 14.5 56 5.5 ESE 30 41 16 22 1026.9 1026.9 0.0
28/11:30am 22.9 18.5 14.2 58 5.1 E 30 39 16 21 1027.2 1027.2 0.0
28/11:00am 22.0 19.7 15.6 67 3.8 SE 22 32 12 17 1027.4 1027.4 0.0
28/10:30am 21.7 19.1 16.0 70 3.4 SE 24 33 13 18 1027.6 1027.6 0.0
28/10:00am 21.3 18.5 15.4 69 3.5 SE 24 32 13 17 1027.8 1027.8 0.0
28/09:30am 20.1 18.5 16.1 78 2.4 SSE 19 24 10 13 1027.9 1027.9 0.0
28/09:00am 18.9 17.6 15.9 83 1.8 SSE 17 26 9 14 1028.2 1028.2 0.2
28/08:30am 17.8 16.3 15.4 86 1.4 SSE 17 24 9 13 1028.3 1028.3 0.2
28/08:00am 16.8 16.0 15.0 89 1.0 SSE 13 22 7 12 1028.3 1028.3 0.2
28/07:30am 15.9 14.9 14.6 92 0.7 S 13 24 7 13 1028.1 1028.1 0.2
28/07:00am 15.5 14.4 14.4 93 0.6 S 13 20 7 11 1028.0 1028.0 0.2
28/06:30am 15.3 14.2 14.3 94 0.6 S 13 19 7 10 1027.8 1027.8 0.2
28/06:00am 15.2 14.5 14.2 94 0.6 SSE 11 17 6 9 1027.4 1027.4 0.2
28/05:30am 15.2 14.1 14.2 94 0.6 SSE 13 20 7 11 1027.2 1027.2 0.0
28/05:00am 15.2 14.5 14.4 95 0.5 SSE 11 19 6 10 1026.8 1026.8 0.0
28/04:30am 15.1 14.4 14.3 95 0.5 SSE 11 17 6 9 1026.6 1026.6 0.0
28/04:00am 14.9 14.1 14.1 95 0.4 S 11 15 6 8 1026.7 1026.7 0.0
28/03:30am 15.1 14.4 14.3 95 0.5 S 11 17 6 9 1026.8 1026.8 0.0
28/03:00am 15.2 14.1 14.4 95 0.5 S 13 17 7 9 1026.8 1026.8 0.0
28/02:30am 15.4 14.4 14.6 95 0.5 S 13 19 7 10 1026.8 1026.8 0.0
28/02:00am 15.2 14.1 14.4 95 0.5 S 13 19 7 10 1027.1 1027.1 0.0
28/01:30am 15.2 14.5 14.4 95 0.5 S 11 19 6 10 1027.3 1027.3 0.0
28/01:00am 15.4 14.3 14.4 94 0.6 S 13 20 7 11 1027.5 1027.5 0.0
28/12:30am 15.5 14.9 14.5 94 0.6 S 11 17 6 9 1027.5 1027.5 0.0
28/12:00am 15.7 15.1 14.6 93 0.6 S 11 15 6 8 1027.7 1027.7 0.0
 
Date/Time
EST
Temp
°C
App
Temp
°C
Dew
Point
Rel
Hum
%
Delta-T
°C
Wind Press
QNH
hPa
Press
MSL
hPa
Rain
since 9 am
mm
Dir
 
Spd
km/h
Gust
km/h
Spd
kts
Gust
kts
27/11:30pm 16.0 15.1 14.9 93 0.6 S 13 19 7 10 1027.7 1027.7 0.0
27/11:00pm 16.2 15.3 14.9 92 0.7 S 13 17 7 9 1028.0 1028.0 0.0
27/10:30pm 16.1 15.6 15.0 93 0.6 S 11 17 6 9 1028.0 1028.0 0.0
27/10:00pm 16.1 15.6 14.8 92 0.7 S 11 17 6 9 1028.0 1028.0 0.0
27/09:30pm 16.3 15.8 15.0 92 0.8 S 11 15 6 8 1028.0 1028.0 0.0
27/09:00pm 16.4 16.0 15.1 92 0.7 S 11 17 6 9 1028.0 1028.0 0.0
27/08:30pm 16.4 15.9 14.8 90 0.9 S 11 17 6 9 1027.8 1027.8 0.0
27/08:00pm 16.9 16.1 15.2 90 1.0 S 13 19 7 10 1027.8 1027.8 0.0
27/07:30pm 16.9 16.5 15.1 89 1.0 SSE 11 15 6 8 1027.7 1027.7 0.0
27/07:00pm 16.9 16.4 14.9 88 1.1 S 11 17 6 9 1027.4 1027.4 0.0
27/06:30pm 17.4 17.4 15.2 87 1.3 S 9 13 5 7 1027.2 1027.2 0.0
27/06:00pm 18.3 18.0 15.4 83 1.7 SSE 11 15 6 8 1026.8 1026.8 0.0
27/05:30pm 18.7 17.6 15.4 81 1.9 SE 15 19 8 10 1026.5 1026.5 0.0
27/05:00pm 19.4 17.5 15.3 77 2.4 SE 19 28 10 15 1026.0 1026.0 0.0
27/04:30pm 20.2 18.7 15.2 73 3.0 SSE 17 28 9 15 1025.7 1025.7 0.0
27/04:00pm 21.2 18.3 15.1 68 3.6 SE 24 33 13 18 1025.4 1025.4 0.0
27/03:30pm 21.3 18.3 14.9 67 3.8 ESE 24 32 13 17 1025.2 1025.2 0.0

Other Formats:

Comma delimited format used in spreadsheet applications
http://www.bom.gov.au/fwo/IDQ60801/IDQ60801.94387.axf

JavaScript Object Notation format (JSON) in row-major order
http://www.bom.gov.au/fwo/IDQ60801/IDQ60801.94387.json